KCEC

Jack Mc Namara Field Airport

Crescent City, California, USA
METAR KCEC 201956Z AUTO 22005KT 7SM OVC004 13/12 A2995 RMK AO2 SLP142 T01330122
Observed Flight Rules
Aug-20 @ 19:56 UTC (35 minutes ago) Instrument Flight Rules
Wind Visibility Clouds
220° at 5 knots 7 miles
  • Overcast at 400' AGL
Temperatures Readings
Current 13°C / 55°F
Dewpoint 12°C / 54°F
Humidity 94%
Altimeter 29.95" Hg
Pressure 1014.2 hPa
Elevation 17
METAR KCEC 201956Z AUTO 22005KT 7SM OVC004 13/12 A2995 RMK AO2 SLP142 T01330122
Observed Flight Rules
Aug-20 @ 19:56 UTC
(35 minutes ago)
LIFR
Wind Visibility
220° at 5 knots 7 miles
Clouds
  • Overcast at 400' AGL
Temperature Dewpoint
13°C / 55°F 12°C / 54°F
Humidity Altimeter Pressure
94% 29.95" Hg 1014.2 hPa